Buhta Providenja, Russia
Current Conditions -  °F | °C
As of 8:36 PM on Saturday 25 Oct 2014 (Local Time) from PAGM Reporting Station
Broken Clouds Broken Clouds  
Wind Chill: 26°   Ceiling: 4300
Heat Index: 37°   Visibility: 6mi
Dew Point: 34°   Wind: 24mph
Humidity: 87%   Direction: 240°WSW
Pressure: 29.53"   Gusts: NA
Location:  64.42°N, 173.23°E
Report Text: PAGM 250836Z AUTO 24021KT 6SM FEW014 SCT026 BKN043 03/01 A2953 RMK AO1
Loading
Personal Weather Stations






























Interactive Weather Map
Tropical Storm Tracking
New forecast layout! Learn more

10-Day Weather Forecast

Advertisements
Track Severe Weather on mobile